createdAt,value
2018-09-23T00:01:01.529Z,101420.87
2018-09-23T00:03:30.417Z,101430.94
2018-09-23T00:05:59.613Z,101432.55
2018-09-23T00:08:28.820Z,101436.32
2018-09-23T00:10:58.841Z,101427.95
2018-09-23T00:13:28.590Z,101433.09
2018-09-23T00:15:57.851Z,101429.53
2018-09-23T00:18:27.325Z,101433.87
2018-09-23T00:20:56.615Z,101428.73
2018-09-23T00:23:25.998Z,101419.77
2018-09-23T00:25:54.851Z,101421.69
2018-09-23T00:28:23.940Z,101419.77
2018-09-23T00:30:52.854Z,101417.36
2018-09-23T00:33:22.368Z,101416.00
2018-09-23T00:35:51.725Z,101411.92
2018-09-23T00:38:20.905Z,101405.14
2018-09-23T00:40:50.382Z,101403.82
2018-09-23T00:43:19.856Z,101401.97
2018-09-23T00:45:49.100Z,101409.56
2018-09-23T00:48:17.990Z,101403.07
2018-09-23T00:50:46.842Z,101400.40
2018-09-23T00:53:15.758Z,101396.59
2018-09-23T00:55:44.727Z,101395.23
2018-09-23T00:58:13.585Z,101400.05
2018-09-23T01:00:42.820Z,101404.13
2018-09-23T01:03:11.905Z,101401.15
2018-09-23T01:05:41.386Z,101394.36
2018-09-23T01:08:10.238Z,101385.95
2018-09-23T01:10:39.582Z,101382.14
2018-09-23T01:13:08.536Z,101370.23
2018-09-23T01:15:37.724Z,101373.20
2018-09-23T01:18:07.205Z,101362.87
2018-09-23T01:20:36.182Z,101361.77
2018-09-23T01:23:05.594Z,101350.12
2018-09-23T01:25:34.752Z,101358.80
2018-09-23T01:28:03.578Z,101352.27
2018-09-23T01:30:32.817Z,101351.52
2018-09-23T01:33:02.244Z,101349.42
2018-09-23T01:35:31.687Z,101348.38
2018-09-23T01:38:00.525Z,101359.80
2018-09-23T01:40:36.019Z,101366.85
2018-09-23T01:43:04.874Z,101353.32
2018-09-23T01:45:33.718Z,101361.16
2018-09-23T01:48:02.576Z,101347.14
2018-09-23T01:50:31.687Z,101352.09
2018-09-23T01:53:00.489Z,101355.91
2018-09-23T01:55:29.621Z,101349.13
2018-09-23T01:57:58.765Z,101358.88
2018-09-23T02:00:27.844Z,101359.14
2018-09-23T02:02:56.963Z,101355.86
2018-09-23T02:05:25.925Z,101346.88
2018-09-23T02:07:54.690Z,101343.61
2018-09-23T02:10:23.497Z,101332.74
2018-09-23T02:12:52.801Z,101334.10
2018-09-23T02:15:21.673Z,101329.19
2018-09-23T02:17:50.986Z,101328.37
2018-09-23T02:20:20.012Z,101331.60
2018-09-23T02:22:48.992Z,101322.36
2018-09-23T02:25:18.020Z,101303.36
2018-09-23T02:27:47.538Z,101307.42
2018-09-23T02:30:16.869Z,101309.58
2018-09-23T02:32:46.089Z,101314.44
2018-09-23T02:35:14.985Z,101316.93
2018-09-23T02:37:43.828Z,101310.14
2018-09-23T02:40:13.084Z,101317.16
2018-09-23T02:42:41.888Z,101310.63
2018-09-23T02:45:10.727Z,101299.23
2018-09-23T02:47:40.138Z,101303.09
2018-09-23T02:50:09.297Z,101301.48
2018-09-23T02:52:38.722Z,101301.22
2018-09-23T02:55:07.605Z,101295.52
2018-09-23T02:57:42.979Z,101296.31
2018-09-23T03:00:11.860Z,101290.62
2018-09-23T03:02:41.012Z,101283.04
2018-09-23T03:05:10.226Z,101288.52
2018-09-23T03:07:39.326Z,101288.26
2018-09-23T03:10:08.352Z,101281.73
2018-09-23T03:12:37.553Z,101282.22
2018-09-23T03:15:06.442Z,101269.20
2018-09-23T03:17:35.555Z,101268.46
2018-09-23T03:20:04.951Z,101264.44
2018-09-23T03:22:33.822Z,101260.37
2018-09-23T03:25:02.938Z,101253.28
2018-09-23T03:27:31.748Z,101248.38
2018-09-23T03:30:00.594Z,101240.01
2018-09-23T03:32:29.687Z,101231.86
2018-09-23T03:34:58.527Z,101239.75
2018-09-23T03:37:27.308Z,101223.47
2018-09-23T03:39:57.840Z,101205.30
2018-09-23T03:42:27.009Z,101198.57
2018-09-23T03:44:56.137Z,101196.73
2018-09-23T03:47:25.368Z,101208.65
2018-09-23T03:49:54.748Z,101219.50
2018-09-23T03:52:23.912Z,101207.34
2018-09-23T03:54:53.013Z,101212.23
2018-09-23T03:57:21.809Z,101227.39
2018-09-23T03:59:50.663Z,101232.08
2018-09-23T04:02:20.063Z,101220.66
2018-09-23T04:04:49.601Z,101204.33
2018-09-23T04:07:18.734Z,101196.74
2018-09-23T04:09:48.252Z,101209.52
2018-09-23T04:12:17.008Z,101207.03
2018-09-23T04:14:46.082Z,101201.33
2018-09-23T04:17:15.024Z,101198.83
2018-09-23T04:19:44.185Z,101193.66
2018-09-23T04:22:13.025Z,101195.53
2018-09-23T04:24:42.139Z,101195.53
2018-09-23T04:27:11.307Z,101191.20
2018-09-23T04:29:40.662Z,101185.25
2018-09-23T04:32:09.451Z,101180.70
2018-09-23T04:34:38.905Z,101185.00
2018-09-23T04:37:07.749Z,101182.59
2018-09-23T04:39:36.537Z,101193.45
2018-09-23T04:42:05.396Z,101194.50
2018-09-23T04:44:34.525Z,101187.17
2018-09-23T04:47:03.430Z,101177.68
2018-09-23T04:49:32.614Z,101176.58
2018-09-23T04:52:01.385Z,101175.45
2018-09-23T04:54:30.937Z,101170.58
2018-09-23T04:57:00.448Z,101163.80
2018-09-23T04:59:29.535Z,101169.84
2018-09-23T05:01:58.723Z,101184.20
2018-09-23T05:04:27.679Z,101192.34
2018-09-23T05:06:56.834Z,101193.96
2018-09-23T05:09:25.670Z,101185.00
2018-09-23T05:12:01.436Z,101183.90
2018-09-23T05:14:30.568Z,101175.22
2018-09-23T05:16:59.684Z,101165.72
2018-09-23T05:19:28.904Z,101164.59
2018-09-23T05:21:57.809Z,101167.30
2018-09-23T05:24:26.935Z,101176.80
2018-09-23T05:26:56.041Z,101180.65
2018-09-23T05:29:24.829Z,101184.16
2018-09-23T05:31:54.469Z,101183.36
2018-09-23T05:34:24.661Z,101187.66
2018-09-23T05:36:53.530Z,101183.59
2018-09-23T05:39:23.212Z,101161.39
2018-09-23T05:41:52.274Z,101151.96
2018-09-23T05:44:21.528Z,101148.20
2018-09-23T05:46:50.677Z,101153.62
2018-09-23T05:49:19.968Z,101159.84
2018-09-23T05:51:49.230Z,101164.17
2018-09-23T05:54:18.566Z,101156.30
2018-09-23T05:56:48.090Z,101170.89
2018-09-23T05:59:17.353Z,101174.45
2018-09-23T06:01:46.757Z,101156.02
2018-09-23T06:04:15.615Z,101150.30
2018-09-23T06:06:44.805Z,101150.61
2018-09-23T06:09:13.710Z,101154.68
2018-09-23T06:11:43.006Z,101152.73
2018-09-23T06:14:12.130Z,101143.23
2018-09-23T06:16:41.133Z,101145.90
2018-09-23T06:19:10.918Z,101134.25
2018-09-23T06:21:39.806Z,101137.50
2018-09-23T06:24:09.062Z,101135.92
2018-09-23T06:26:38.399Z,101145.11
2018-09-23T06:29:07.808Z,101149.13
2018-09-23T06:31:36.635Z,101150.97
2018-09-23T06:34:05.823Z,101156.91
2018-09-23T06:36:34.924Z,101153.27
2018-09-23T06:39:05.021Z,101151.27
2018-09-23T06:41:33.966Z,101156.03
2018-09-23T06:44:03.478Z,101147.62
2018-09-23T06:46:34.290Z,101142.94
2018-09-23T06:49:03.248Z,101151.34
2018-09-23T06:51:32.376Z,101142.34
2018-09-23T06:54:01.672Z,101136.04
2018-09-23T06:56:30.930Z,101143.82
2018-09-23T06:59:00.174Z,101146.73
2018-09-23T07:01:29.401Z,101151.60
2018-09-23T07:03:58.304Z,101153.72
2018-09-23T07:06:27.161Z,101143.91
2018-09-23T07:08:56.265Z,101146.00
2018-09-23T07:11:25.264Z,101149.23
2018-09-23T07:13:54.652Z,101147.50
2018-09-23T07:16:23.578Z,101147.45
2018-09-23T07:18:59.755Z,101137.88
2018-09-23T07:21:28.780Z,101143.00
2018-09-23T07:23:57.898Z,101133.18
2018-09-23T07:26:26.765Z,101119.54
2018-09-23T07:28:55.946Z,101130.61
2018-09-23T07:31:25.128Z,101134.56
2018-09-23T07:33:54.318Z,101135.86
2018-09-23T07:36:23.198Z,101133.37
2018-09-23T07:38:52.064Z,101131.35
2018-09-23T07:41:21.386Z,101137.45
2018-09-23T07:43:50.722Z,101143.56
2018-09-23T07:46:19.845Z,101139.94
2018-09-23T07:48:48.687Z,101135.16
2018-09-23T07:51:17.569Z,101138.30
2018-09-23T07:53:46.919Z,101140.47
2018-09-23T07:56:15.850Z,101133.42
2018-09-23T07:58:45.746Z,101129.03
2018-09-23T08:01:14.642Z,101118.59
2018-09-23T08:03:45.449Z,101121.47
2018-09-23T08:06:14.321Z,101117.20
2018-09-23T08:08:43.437Z,101114.09
2018-09-23T08:11:12.329Z,101106.45
2018-09-23T08:13:41.344Z,101095.63
2018-09-23T08:16:10.274Z,101088.45
2018-09-23T08:18:39.087Z,101080.38
2018-09-23T08:21:08.505Z,101066.73
2018-09-23T08:23:37.676Z,101056.04
2018-09-23T08:26:06.515Z,101058.44
2018-09-23T08:28:35.636Z,101051.03
2018-09-23T08:31:04.751Z,101065.10
2018-09-23T08:33:33.943Z,101072.61
2018-09-23T08:36:03.273Z,101066.67
2018-09-23T08:38:32.505Z,101056.11
2018-09-23T08:41:01.633Z,101049.06
2018-09-23T08:43:30.984Z,101050.13
2018-09-23T08:46:00.151Z,101054.86
2018-09-23T08:48:29.034Z,101065.60
2018-09-23T08:50:58.249Z,101077.28
2018-09-23T08:53:27.131Z,101087.30
2018-09-23T08:55:56.567Z,101101.05
2018-09-23T08:58:25.817Z,101098.52
2018-09-23T09:00:54.876Z,101090.60
2018-09-23T09:03:23.983Z,101085.09
2018-09-23T09:05:52.799Z,101079.15
2018-09-23T09:08:21.618Z,101063.64
2018-09-23T09:10:50.457Z,101057.95
2018-09-23T09:13:19.909Z,101052.51
2018-09-23T09:15:48.781Z,101048.57
2018-09-23T09:18:17.766Z,101059.13
2018-09-23T09:20:47.216Z,101063.39
2018-09-23T09:23:16.067Z,101067.47
2018-09-23T09:25:44.875Z,101073.38
2018-09-23T09:28:13.768Z,101074.13
2018-09-23T09:30:42.585Z,101092.14
2018-09-23T09:33:11.782Z,101077.72
2018-09-23T09:35:40.905Z,101073.56
2018-09-23T09:38:10.023Z,101081.16
2018-09-23T09:40:39.506Z,101072.38
2018-09-23T09:43:08.544Z,101077.18
2018-09-23T09:45:37.434Z,101088.25
2018-09-23T09:48:06.638Z,101076.31
2018-09-23T09:50:35.486Z,101070.70
2018-09-23T09:53:04.297Z,101079.51
2018-09-23T09:55:33.751Z,101082.44
2018-09-23T09:58:02.634Z,101062.35
2018-09-23T10:00:36.258Z,101060.42
2018-09-23T10:03:06.533Z,101054.65
2018-09-23T10:05:35.437Z,101063.81
2018-09-23T10:08:04.598Z,101074.11
2018-09-23T10:10:33.500Z,101083.95
2018-09-23T10:13:02.394Z,101070.45
2018-09-23T10:15:31.266Z,101052.77
2018-09-23T10:18:00.330Z,101055.56
2018-09-23T10:20:29.582Z,101054.52
2018-09-23T10:22:58.777Z,101056.99
2018-09-23T10:25:28.019Z,101048.52
2018-09-23T10:27:57.118Z,101030.62
2018-09-23T10:30:26.321Z,101003.89
2018-09-23T10:32:55.334Z,101015.48
2018-09-23T10:35:24.138Z,101041.33
2018-09-23T10:37:53.014Z,101051.91
2018-09-23T10:40:22.705Z,101043.33
2018-09-23T10:42:51.543Z,101039.81
2018-09-23T10:45:20.723Z,101044.22
2018-09-23T10:47:49.565Z,101051.30
2018-09-23T10:50:18.372Z,101046.69
2018-09-23T10:52:54.038Z,101030.75
2018-09-23T10:55:23.086Z,101025.31
2018-09-23T10:57:52.144Z,101019.73
2018-09-23T11:00:21.653Z,101007.72
2018-09-23T11:02:51.065Z,101018.84
2018-09-23T11:05:20.172Z,101052.98
2018-09-23T11:07:49.298Z,101076.91
2018-09-23T11:10:18.248Z,101082.10
2018-09-23T11:12:47.059Z,101074.41
2018-09-23T11:15:15.907Z,101077.89
2018-09-23T11:17:44.725Z,101076.91
2018-09-23T11:20:13.577Z,101056.91
2018-09-23T11:22:42.597Z,101044.95
2018-09-23T11:25:11.693Z,101037.05
2018-09-23T11:27:41.018Z,101036.01
2018-09-23T11:30:10.107Z,101036.27
2018-09-23T11:32:39.749Z,100999.55
2018-09-23T11:35:09.435Z,101020.27
2018-09-23T11:37:39.017Z,101023.34
2018-09-23T11:40:08.645Z,101022.61
2018-09-23T11:42:38.563Z,101039.56
2018-09-23T11:45:08.046Z,101051.55
2018-09-23T11:47:37.111Z,101040.48
2018-09-23T11:50:07.595Z,101031.29
2018-09-23T11:52:37.732Z,101042.67
2018-09-23T11:55:06.562Z,101023.14
2018-09-23T11:57:35.654Z,101020.67
2018-09-23T12:00:04.671Z,101025.00
2018-09-23T12:02:34.018Z,101012.20
2018-09-23T12:05:02.910Z,100972.84
2018-09-23T12:07:32.921Z,100914.33
2018-09-23T12:10:02.534Z,100927.98
2018-09-23T12:12:31.748Z,100957.81
2018-09-23T12:15:01.069Z,100967.08
2018-09-23T12:17:30.277Z,100968.84
2018-09-23T12:19:59.454Z,100980.39
2018-09-23T12:22:29.615Z,100978.64
2018-09-23T12:24:58.756Z,101000.14
2018-09-23T12:27:28.684Z,100998.28
2018-09-23T12:29:57.713Z,100973.50
2018-09-23T12:32:26.573Z,100961.11
2018-09-23T12:34:55.864Z,100951.73
2018-09-23T12:37:24.749Z,100934.07
2018-09-23T12:39:54.020Z,100910.14
2018-09-23T12:42:23.245Z,100923.73
2018-09-23T12:44:52.092Z,100947.16
2018-09-23T12:47:21.290Z,100967.39
2018-09-23T12:49:50.842Z,100967.84
2018-09-23T12:52:20.095Z,100939.53
2018-09-23T12:54:49.749Z,100943.32
2018-09-23T12:57:19.106Z,100971.86
2018-09-23T12:59:48.034Z,100958.48
2018-09-23T13:02:17.160Z,100976.73
2018-09-23T13:04:46.297Z,100994.96
2018-09-23T13:07:16.749Z,100987.73
2018-09-23T13:09:45.743Z,100983.25
2018-09-23T13:12:14.665Z,100970.77
2018-09-23T13:14:44.024Z,100970.20
2018-09-23T13:17:15.089Z,100979.45
2018-09-23T13:19:45.042Z,100977.88
2018-09-23T13:22:14.115Z,100987.61
2018-09-23T13:24:45.278Z,100973.73
2018-09-23T13:27:14.733Z,100981.31
2018-09-23T13:29:43.780Z,100997.38
2018-09-23T13:32:12.733Z,100980.75
2018-09-23T13:34:41.890Z,100991.02
2018-09-23T13:37:10.951Z,100988.90
2018-09-23T13:39:40.855Z,100988.69
2018-09-23T13:42:09.658Z,100993.30
2018-09-23T13:44:38.875Z,100992.83
2018-09-23T13:47:08.523Z,100991.02
2018-09-23T13:49:37.471Z,100995.42
2018-09-23T13:52:06.966Z,101003.22
2018-09-23T13:54:36.136Z,100999.28
2018-09-23T13:57:05.651Z,101009.38
2018-09-23T13:59:34.493Z,101007.48
2018-09-23T14:02:03.937Z,101013.17
2018-09-23T14:04:39.733Z,101017.98
2018-09-23T14:07:08.733Z,101019.08
2018-09-23T14:09:37.969Z,101031.30
2018-09-23T14:12:07.204Z,101033.73
2018-09-23T14:14:36.253Z,101038.84
2018-09-23T14:17:05.612Z,101028.30
2018-09-23T14:19:34.946Z,101014.47
2018-09-23T14:22:03.956Z,101014.15
2018-09-23T14:24:33.260Z,101016.33
2018-09-23T14:27:02.285Z,101026.56
2018-09-23T14:29:31.373Z,101026.08
2018-09-23T14:32:00.613Z,101032.36
2018-09-23T14:34:29.461Z,101043.06
2018-09-23T14:36:58.600Z,101046.83
2018-09-23T14:39:27.671Z,101050.33
2018-09-23T14:41:56.945Z,101056.86
2018-09-23T14:44:25.804Z,101055.50
2018-09-23T14:46:55.036Z,101057.43
2018-09-23T14:49:24.255Z,101061.31
2018-09-23T14:51:53.622Z,101069.39
2018-09-23T14:54:22.853Z,101073.42
2018-09-23T14:56:53.030Z,101082.05
2018-09-23T14:59:22.570Z,101084.76
2018-09-23T15:01:51.620Z,101087.27
2018-09-23T15:04:20.626Z,101095.78
2018-09-23T15:06:49.617Z,101098.19
2018-09-23T15:09:18.930Z,101101.58
2018-09-23T15:11:51.165Z,101103.25
2018-09-23T15:14:20.646Z,101109.19
2018-09-23T15:16:50.610Z,101108.99
2018-09-23T15:19:19.731Z,101109.84
2018-09-23T15:21:49.238Z,101097.67
2018-09-23T15:24:18.120Z,101098.34
2018-09-23T15:26:47.259Z,101112.80
2018-09-23T15:29:16.313Z,101110.95
2018-09-23T15:31:45.491Z,101115.37
2018-09-23T15:34:16.078Z,101113.28
2018-09-23T15:36:44.942Z,101117.40
2018-09-23T15:39:13.948Z,101114.45
2018-09-23T15:41:44.208Z,101110.44
2018-09-23T15:44:14.251Z,101122.89
2018-09-23T15:46:43.314Z,101131.33
2018-09-23T15:49:12.663Z,101131.33
2018-09-23T15:51:41.541Z,101133.17
2018-09-23T15:54:10.790Z,101141.04
2018-09-23T15:56:40.061Z,101149.22
2018-09-23T15:59:09.538Z,101153.52
2018-09-23T16:01:39.200Z,101159.25
2018-09-23T16:04:09.338Z,101164.38
2018-09-23T16:06:38.213Z,101166.69
2018-09-23T16:09:09.424Z,101167.78
2018-09-23T16:11:38.896Z,101159.51
2018-09-23T16:14:08.781Z,101168.66
2018-09-23T16:16:37.854Z,101171.31
2018-09-23T16:19:07.003Z,101169.44
2018-09-23T16:21:35.843Z,101168.04
2018-09-23T16:24:05.225Z,101168.74
2018-09-23T16:26:34.571Z,101174.98
2018-09-23T16:29:04.291Z,101192.36
2018-09-23T16:31:33.461Z,101192.36
2018-09-23T16:34:02.886Z,101205.31
2018-09-23T16:36:31.821Z,101221.72
2018-09-23T16:39:00.638Z,101233.73
2018-09-23T16:41:29.459Z,101243.23
2018-09-23T16:43:58.748Z,101250.55
2018-09-23T16:46:27.533Z,101250.80
2018-09-23T16:48:56.815Z,101244.59
2018-09-23T16:51:26.088Z,101240.52
2018-09-23T16:53:55.156Z,101248.88
2018-09-23T16:56:24.298Z,101256.75
2018-09-23T16:58:53.428Z,101261.09
2018-09-23T17:01:22.556Z,101259.23
2018-09-23T17:03:51.765Z,101259.84
2018-09-23T17:06:20.562Z,101265.20
2018-09-23T17:08:49.365Z,101262.48
2018-09-23T17:11:18.563Z,101265.16
2018-09-23T17:13:47.619Z,101264.36
2018-09-23T17:16:17.640Z,101272.54
2018-09-23T17:18:46.517Z,101292.05
2018-09-23T17:21:15.388Z,101299.05
2018-09-23T17:23:44.637Z,101297.20
2018-09-23T17:26:13.798Z,101300.22
2018-09-23T17:28:42.692Z,101310.55
2018-09-23T17:31:12.526Z,101313.33
2018-09-23T17:33:41.658Z,101319.36
2018-09-23T17:36:10.507Z,101329.68
2018-09-23T17:38:39.722Z,101333.48
2018-09-23T17:41:09.424Z,101349.52
2018-09-23T17:43:38.617Z,101357.66
2018-09-23T17:46:07.841Z,101362.31
2018-09-23T17:48:36.808Z,101375.91
2018-09-23T17:51:06.215Z,101375.05
2018-09-23T17:53:35.345Z,101387.28
2018-09-23T17:56:04.998Z,101386.98
2018-09-23T17:58:34.616Z,101397.11
2018-09-23T18:01:03.892Z,101401.73
2018-09-23T18:03:33.577Z,101420.41
2018-09-23T18:06:02.780Z,101419.91
2018-09-23T18:08:32.203Z,101423.78
2018-09-23T18:11:01.072Z,101441.16
2018-09-23T18:13:29.913Z,101437.92
2018-09-23T18:15:59.110Z,101449.33
2018-09-23T18:18:28.275Z,101456.98
2018-09-23T18:20:57.376Z,101465.62
2018-09-23T18:23:27.130Z,101463.77
2018-09-23T18:25:56.254Z,101472.95
2018-09-23T18:28:25.677Z,101493.02
2018-09-23T18:31:00.957Z,101496.78
2018-09-23T18:33:31.043Z,101511.40
2018-09-23T18:36:00.137Z,101516.02
2018-09-23T18:38:29.617Z,101507.66
2018-09-23T18:40:58.956Z,101516.08
2018-09-23T18:43:28.106Z,101524.74
2018-09-23T18:45:57.764Z,101521.45
2018-09-23T18:48:26.962Z,101535.05
2018-09-23T18:50:56.707Z,101535.31
2018-09-23T18:53:26.674Z,101542.57
2018-09-23T18:55:56.759Z,101546.66
2018-09-23T18:58:26.436Z,101555.89
2018-09-23T19:00:55.553Z,101558.09
2018-09-23T19:03:24.938Z,101568.42
2018-09-23T19:05:54.021Z,101574.10
2018-09-23T19:08:23.857Z,101586.86
2018-09-23T19:10:54.080Z,101592.56
2018-09-23T19:13:28.591Z,101586.64
2018-09-23T19:16:02.698Z,101610.78
2018-09-23T19:18:32.122Z,101621.36
2018-09-23T19:21:01.595Z,101627.09
2018-09-23T19:23:31.019Z,101623.55
2018-09-23T19:26:00.234Z,101626.86
2018-09-23T19:28:30.411Z,101624.73
2018-09-23T19:30:59.538Z,101628.27
2018-09-23T19:33:29.816Z,101627.45
2018-09-23T19:35:59.234Z,101638.62
2018-09-23T19:38:29.081Z,101638.92
2018-09-23T19:40:58.167Z,101654.13
2018-09-23T19:43:27.781Z,101673.34
2018-09-23T19:45:57.073Z,101678.52
2018-09-23T19:48:26.068Z,101683.41
2018-09-23T19:50:55.498Z,101701.02
2018-09-23T19:53:24.765Z,101707.00
2018-09-23T19:55:53.598Z,101715.42
2018-09-23T19:58:22.622Z,101724.35
2018-09-23T20:00:52.466Z,101719.20
2018-09-23T20:03:21.356Z,101720.28
2018-09-23T20:05:50.390Z,101711.64
2018-09-23T20:08:19.273Z,101705.95
2018-09-23T20:10:48.095Z,101707.56
2018-09-23T20:13:16.949Z,101718.39
2018-09-23T20:15:45.839Z,101735.47
2018-09-23T20:18:14.986Z,101732.76
2018-09-23T20:20:44.169Z,101748.43
2018-09-23T20:23:13.307Z,101757.66
2018-09-23T20:25:42.688Z,101758.20
2018-09-23T20:28:12.353Z,101764.17
2018-09-23T20:30:41.247Z,101774.44
2018-09-23T20:33:10.552Z,101775.80
2018-09-23T20:35:39.397Z,101784.77
2018-09-23T20:38:08.214Z,101803.16
2018-09-23T20:40:37.327Z,101804.80
2018-09-23T20:43:06.704Z,101802.38
2018-09-23T20:45:35.523Z,101810.23
2018-09-23T20:48:04.677Z,101805.66
2018-09-23T20:50:33.798Z,101806.23
2018-09-23T20:53:02.681Z,101823.27
2018-09-23T20:55:31.482Z,101826.78
2018-09-23T20:58:00.326Z,101836.53
2018-09-23T21:00:29.957Z,101830.31
2018-09-23T21:02:58.822Z,101835.45
2018-09-23T21:05:27.753Z,101837.09
2018-09-23T21:07:56.812Z,101852.25
2018-09-23T21:10:25.987Z,101853.33
2018-09-23T21:12:54.869Z,101851.70
2018-09-23T21:15:23.740Z,101864.16
2018-09-23T21:17:52.574Z,101865.79
2018-09-23T21:20:21.766Z,101880.12
2018-09-23T21:22:51.210Z,101878.52
2018-09-23T21:25:20.363Z,101892.58
2018-09-23T21:27:49.288Z,101895.83
2018-09-23T21:30:18.368Z,101895.56
2018-09-23T21:32:47.252Z,101909.64
2018-09-23T21:35:22.324Z,101907.45
2018-09-23T21:37:51.536Z,101911.27
2018-09-23T21:40:20.395Z,101913.97
2018-09-23T21:42:49.248Z,101921.02
2018-09-23T21:45:18.406Z,101921.53
2018-09-23T21:47:47.248Z,101923.98
2018-09-23T21:50:16.565Z,101931.55
2018-09-23T21:52:46.042Z,101932.61
2018-09-23T21:55:15.248Z,101932.89
2018-09-23T21:57:44.798Z,101933.97
2018-09-23T22:00:13.620Z,101942.64
2018-09-23T22:02:45.337Z,101948.05
2018-09-23T22:05:14.868Z,101961.84
2018-09-23T22:07:44.286Z,101968.87
2018-09-23T22:10:13.460Z,101971.02
2018-09-23T22:12:42.669Z,101972.09
2018-09-23T22:15:16.690Z,101991.81
2018-09-23T22:17:45.540Z,102001.81
2018-09-23T22:20:14.365Z,102005.32
2018-09-23T22:22:43.569Z,102012.36
2018-09-23T22:25:12.920Z,102013.43
2018-09-23T22:27:42.248Z,102023.17
2018-09-23T22:30:11.385Z,102023.19
2018-09-23T22:32:40.426Z,102022.91
2018-09-23T22:35:09.812Z,102026.69
2018-09-23T22:37:38.644Z,102021.03
2018-09-23T22:40:08.220Z,102028.32
2018-09-23T22:42:38.352Z,102041.05
2018-09-23T22:45:07.763Z,102031.30
2018-09-23T22:47:36.830Z,102035.62
2018-09-23T22:50:06.379Z,102039.66
2018-09-23T22:52:35.265Z,102039.92
2018-09-23T22:55:04.573Z,102046.13
2018-09-23T22:57:33.662Z,102055.84
2018-09-23T23:00:02.533Z,102051.25
2018-09-23T23:02:31.391Z,102071.77
2018-09-23T23:05:00.265Z,102076.91
2018-09-23T23:07:33.326Z,102079.05
2018-09-23T23:10:02.192Z,102075.27
2018-09-23T23:12:31.005Z,102077.44
2018-09-23T23:15:00.495Z,102077.72
2018-09-23T23:17:29.901Z,102087.98
2018-09-23T23:19:58.766Z,102083.69
2018-09-23T23:22:28.161Z,102081.30
2018-09-23T23:24:56.957Z,102079.94
2018-09-23T23:27:26.396Z,102092.39
2018-09-23T23:29:55.476Z,102097.78
2018-09-23T23:32:24.681Z,102103.47
2018-09-23T23:34:53.784Z,102106.44
2018-09-23T23:37:22.652Z,102117.23
2018-09-23T23:39:51.507Z,102120.77
2018-09-23T23:42:20.652Z,102117.23
2018-09-23T23:44:49.485Z,102119.66
2018-09-23T23:47:18.646Z,102131.27
2018-09-23T23:49:47.750Z,102134.23
2018-09-23T23:52:16.610Z,102128.83
2018-09-23T23:54:45.780Z,102151.02
2018-09-23T23:57:14.831Z,102164.79
2018-09-23T23:59:43.659Z,102180.23
